createdAt,value
2019-02-15T00:02:25.318Z,99.90
2019-02-15T00:04:53.762Z,99.90
2019-02-15T00:07:22.266Z,99.90
2019-02-15T00:09:50.710Z,99.90
2019-02-15T00:12:19.159Z,99.90
2019-02-15T00:14:48.636Z,99.90
2019-02-15T00:17:18.784Z,99.90
2019-02-15T00:19:48.861Z,99.90
2019-02-15T00:22:17.313Z,99.90
2019-02-15T00:24:45.732Z,99.90
2019-02-15T00:27:14.187Z,99.90
2019-02-15T00:29:42.625Z,99.90
2019-02-15T00:32:11.079Z,99.90
2019-02-15T00:34:39.518Z,99.90
2019-02-15T00:37:08.144Z,99.90
2019-02-15T00:39:36.580Z,99.90
2019-02-15T00:42:05.038Z,99.90
2019-02-15T00:44:33.473Z,99.90
2019-02-15T00:47:19.656Z,99.90
2019-02-15T00:49:49.950Z,99.90
2019-02-15T00:52:20.050Z,99.90
2019-02-15T00:54:50.135Z,99.90
2019-02-15T00:57:20.248Z,99.90
2019-02-15T00:59:53.221Z,99.90
2019-02-15T01:02:23.324Z,99.90
2019-02-15T01:05:09.462Z,99.90
2019-02-15T01:07:51.524Z,99.90
2019-02-15T01:10:36.376Z,99.90
2019-02-15T01:13:06.465Z,99.90
2019-02-15T01:15:34.898Z,99.90
2019-02-15T01:18:03.346Z,99.90
2019-02-15T01:20:31.778Z,99.90
2019-02-15T01:23:00.223Z,99.90
2019-02-15T01:25:30.283Z,99.90
2019-02-15T01:28:03.042Z,99.90
2019-02-15T01:30:48.167Z,99.90
2019-02-15T01:33:18.253Z,99.90
2019-02-15T01:35:53.999Z,99.90
2019-02-15T01:38:26.743Z,99.90
2019-02-15T01:40:59.743Z,99.90
2019-02-15T01:43:39.830Z,99.90
2019-02-15T01:46:04.694Z,99.90
2019-02-15T01:48:33.154Z,99.90
2019-02-15T01:51:01.652Z,99.90
2019-02-15T01:53:30.115Z,99.90
2019-02-15T01:55:58.541Z,99.90
2019-02-15T01:58:26.988Z,99.90
2019-02-15T02:00:55.430Z,99.90
2019-02-15T02:03:23.910Z,99.90
2019-02-15T02:05:52.411Z,99.90
2019-02-15T02:08:25.033Z,99.90
2019-02-15T02:10:53.655Z,99.90
2019-02-15T02:13:22.089Z,99.90
2019-02-15T02:15:50.539Z,99.90
2019-02-15T02:18:18.969Z,99.90
2019-02-15T02:20:47.417Z,99.90
2019-02-15T02:23:15.851Z,99.90
2019-02-15T02:25:44.289Z,99.90
2019-02-15T02:28:12.732Z,99.90
2019-02-15T02:30:41.179Z,99.90
2019-02-15T02:33:09.602Z,99.90
2019-02-15T02:35:38.050Z,99.90
2019-02-15T02:38:06.479Z,99.90
2019-02-15T02:40:34.933Z,99.90
2019-02-15T02:43:03.361Z,99.90
2019-02-15T02:45:31.818Z,99.90
2019-02-15T02:48:00.257Z,99.90
2019-02-15T02:50:28.716Z,99.90
2019-02-15T02:52:57.167Z,99.90
2019-02-15T02:55:25.616Z,99.90
2019-02-15T02:57:54.076Z,99.90
2019-02-15T03:00:22.524Z,99.90
2019-02-15T03:02:51.030Z,99.90
2019-02-15T03:05:19.504Z,99.90
2019-02-15T03:07:47.953Z,99.90
2019-02-15T03:10:18.340Z,99.90
2019-02-15T03:12:46.801Z,99.90
2019-02-15T03:15:15.302Z,99.90
2019-02-15T03:17:43.751Z,99.90
2019-02-15T03:20:12.192Z,99.90
2019-02-15T03:22:40.652Z,99.90
2019-02-15T03:25:11.765Z,99.90
2019-02-15T03:27:40.211Z,99.90
2019-02-15T03:30:09.669Z,99.90
2019-02-15T03:32:38.180Z,99.90
2019-02-15T03:35:08.871Z,99.90
2019-02-15T03:37:44.614Z,99.90
2019-02-15T03:40:14.694Z,99.90
2019-02-15T03:42:43.155Z,99.90
2019-02-15T03:45:11.579Z,99.90
2019-02-15T03:47:40.039Z,99.90
2019-02-15T03:50:08.928Z,99.90
2019-02-15T03:52:37.439Z,99.90
2019-02-15T03:55:06.709Z,99.90
2019-02-15T03:57:35.181Z,99.90
2019-02-15T04:00:05.078Z,99.90
2019-02-15T04:02:33.532Z,99.90
2019-02-15T04:05:01.952Z,99.90
2019-02-15T04:07:30.422Z,99.90
2019-02-15T04:09:58.911Z,99.90
2019-02-15T04:12:27.381Z,99.90
2019-02-15T04:14:55.816Z,99.90
2019-02-15T04:17:24.256Z,99.90
2019-02-15T04:19:52.695Z,99.90
2019-02-15T04:22:21.160Z,99.90
2019-02-15T04:24:49.608Z,99.90
2019-02-15T04:27:18.136Z,99.90
2019-02-15T04:29:46.576Z,99.90
2019-02-15T04:32:15.095Z,99.90
2019-02-15T04:34:43.533Z,99.90
2019-02-15T04:37:11.982Z,99.90
2019-02-15T04:39:40.414Z,99.90
2019-02-15T04:42:08.845Z,99.90
2019-02-15T04:44:42.749Z,99.90
2019-02-15T04:47:07.450Z,99.90
2019-02-15T04:49:35.876Z,99.90
2019-02-15T04:52:04.336Z,99.90
2019-02-15T04:54:32.834Z,99.90
2019-02-15T04:57:01.312Z,99.90
2019-02-15T04:59:29.755Z,99.90
2019-02-15T05:01:58.193Z,99.90
2019-02-15T05:04:26.639Z,99.90
2019-02-15T05:06:55.073Z,99.90
2019-02-15T05:09:24.116Z,99.90
2019-02-15T05:11:52.673Z,99.90
2019-02-15T05:14:21.184Z,99.90
2019-02-15T05:16:49.611Z,99.90
2019-02-15T05:19:18.061Z,99.90
2019-02-15T05:21:46.492Z,99.90
2019-02-15T05:24:14.963Z,99.90
2019-02-15T05:26:43.420Z,99.90
2019-02-15T05:29:11.877Z,99.90
2019-02-15T05:31:40.309Z,99.90
2019-02-15T05:34:08.760Z,99.90
2019-02-15T05:36:37.191Z,99.90
2019-02-15T05:39:07.595Z,99.90
2019-02-15T05:41:36.016Z,99.90
2019-02-15T05:44:04.464Z,99.90
2019-02-15T05:46:32.890Z,99.90
2019-02-15T05:49:01.352Z,99.90
2019-02-15T05:51:29.861Z,99.90
2019-02-15T05:53:58.308Z,99.90
2019-02-15T05:56:26.731Z,99.90
2019-02-15T05:58:55.192Z,99.90
2019-02-15T06:01:25.099Z,99.90
2019-02-15T06:03:53.563Z,99.90
2019-02-15T06:06:21.993Z,99.90
2019-02-15T06:08:50.451Z,99.90
2019-02-15T06:11:18.928Z,99.90
2019-02-15T06:13:47.446Z,99.90
2019-02-15T06:16:15.881Z,99.90
2019-02-15T06:18:44.346Z,99.90
2019-02-15T06:21:12.799Z,99.90
2019-02-15T06:23:41.264Z,99.90
2019-02-15T06:26:09.785Z,99.90
2019-02-15T06:28:38.230Z,99.90
2019-02-15T06:31:06.682Z,99.90
2019-02-15T06:33:35.137Z,99.90
2019-02-15T06:36:03.566Z,99.90
2019-02-15T06:38:34.764Z,99.90
2019-02-15T06:41:02.263Z,99.90
2019-02-15T06:43:30.754Z,99.90
2019-02-15T06:45:59.235Z,99.90
2019-02-15T06:48:27.719Z,99.90
2019-02-15T06:50:56.150Z,99.90
2019-02-15T06:53:24.610Z,99.90
2019-02-15T06:55:53.150Z,99.90
2019-02-15T06:58:21.582Z,99.90
2019-02-15T07:01:00.493Z,99.90
2019-02-15T07:03:30.569Z,99.90
2019-02-15T07:05:59.032Z,99.90
2019-02-15T07:08:27.483Z,99.90
2019-02-15T07:10:55.937Z,99.90
2019-02-15T07:13:24.372Z,99.90
2019-02-15T07:15:52.817Z,99.90
2019-02-15T07:18:22.157Z,99.90
2019-02-15T07:20:50.592Z,99.90
2019-02-15T07:23:19.054Z,99.90
2019-02-15T07:25:47.518Z,99.90
2019-02-15T07:28:15.959Z,99.90
2019-02-15T07:30:44.413Z,99.90
2019-02-15T07:33:12.843Z,99.90
2019-02-15T07:35:41.302Z,99.90
2019-02-15T07:38:09.865Z,99.90
2019-02-15T07:40:38.296Z,99.90
2019-02-15T07:43:06.792Z,99.90
2019-02-15T07:45:42.647Z,99.90
2019-02-15T07:48:05.449Z,99.90
2019-02-15T07:50:33.970Z,99.90
2019-02-15T07:53:02.410Z,99.90
2019-02-15T07:55:30.873Z,99.90
2019-02-15T07:57:59.318Z,99.90
2019-02-15T08:00:27.778Z,99.90
2019-02-15T08:02:56.237Z,99.90
2019-02-15T08:05:24.750Z,99.90
2019-02-15T08:07:53.180Z,99.90
2019-02-15T08:10:21.648Z,99.90
2019-02-15T08:12:50.094Z,99.90
2019-02-15T08:15:18.615Z,99.90
2019-02-15T08:17:47.069Z,99.90
2019-02-15T08:20:15.591Z,99.90
2019-02-15T08:22:44.025Z,99.90
2019-02-15T08:25:12.480Z,99.90
2019-02-15T08:27:40.929Z,99.90
2019-02-15T08:30:11.084Z,99.90
2019-02-15T08:32:39.505Z,99.90
2019-02-15T08:35:10.115Z,99.90
2019-02-15T08:37:38.553Z,99.90
2019-02-15T08:40:09.551Z,99.90
2019-02-15T08:42:37.995Z,99.90
2019-02-15T08:45:09.406Z,99.90
2019-02-15T08:47:39.757Z,99.90
2019-02-15T08:50:10.248Z,99.90
2019-02-15T08:52:38.711Z,99.90
2019-02-15T08:55:11.218Z,99.90
2019-02-15T08:57:39.749Z,99.90
2019-02-15T09:00:10.721Z,99.90
2019-02-15T09:02:39.195Z,99.90
2019-02-15T09:05:09.867Z,99.90
2019-02-15T09:07:38.323Z,99.90
2019-02-15T09:10:09.109Z,99.90
2019-02-15T09:12:37.568Z,99.90
2019-02-15T09:15:09.401Z,99.90
2019-02-15T09:17:37.852Z,99.90
2019-02-15T09:20:09.420Z,99.90
2019-02-15T09:22:37.870Z,99.90
2019-02-15T09:25:10.587Z,99.90
2019-02-15T09:27:43.325Z,99.90
2019-02-15T09:30:15.005Z,99.90
2019-02-15T09:32:43.527Z,99.90
2019-02-15T09:35:12.414Z,99.90
2019-02-15T09:37:40.866Z,99.90
2019-02-15T09:40:10.247Z,99.90
2019-02-15T09:42:38.766Z,99.90
2019-02-15T09:45:11.775Z,99.90
2019-02-15T09:47:40.234Z,99.90
2019-02-15T09:50:12.037Z,99.90
2019-02-15T09:52:40.382Z,99.90
2019-02-15T09:55:08.817Z,99.90
2019-02-15T09:57:37.277Z,99.90
2019-02-15T10:00:08.406Z,99.90
2019-02-15T10:02:36.885Z,99.90
2019-02-15T10:05:06.722Z,99.90
2019-02-15T10:07:35.188Z,99.90
2019-02-15T10:10:04.090Z,99.90
2019-02-15T10:12:32.546Z,99.90
2019-02-15T10:15:00.979Z,99.90
2019-02-15T10:17:29.436Z,99.90
2019-02-15T10:19:58.748Z,99.90
2019-02-15T10:22:27.214Z,99.90
2019-02-15T10:24:55.754Z,99.90
2019-02-15T10:27:24.273Z,99.90
2019-02-15T10:29:52.710Z,99.90
2019-02-15T10:32:21.167Z,99.90
2019-02-15T10:34:49.605Z,99.90
2019-02-15T10:37:18.053Z,99.90
2019-02-15T10:39:46.495Z,99.90
2019-02-15T10:42:14.954Z,99.90
2019-02-15T10:44:43.386Z,99.90
2019-02-15T10:47:14.270Z,99.90
2019-02-15T10:49:42.021Z,99.20
2019-02-15T10:52:10.504Z,99.20
2019-02-15T10:54:39.000Z,98.60
2019-02-15T10:57:07.449Z,98.90
2019-02-15T10:59:35.893Z,96.70
2019-02-15T11:02:04.359Z,96.60
2019-02-15T11:04:32.805Z,95.30
2019-02-15T11:07:01.241Z,94.00
2019-02-15T11:09:29.707Z,93.70
2019-02-15T11:11:58.149Z,92.30
2019-02-15T11:14:26.626Z,90.80
2019-02-15T11:16:55.131Z,91.40
2019-02-15T11:19:23.593Z,91.20
2019-02-15T11:21:52.041Z,89.20
2019-02-15T11:24:20.494Z,84.50
2019-02-15T11:26:48.926Z,79.30
2019-02-15T11:29:17.381Z,79.30
2019-02-15T11:31:45.818Z,77.80
2019-02-15T11:34:14.299Z,76.30
2019-02-15T11:36:42.735Z,73.60
2019-02-15T11:39:11.266Z,73.30
2019-02-15T11:41:39.720Z,73.50
2019-02-15T11:44:08.175Z,64.00
2019-02-15T11:46:36.614Z,60.30
2019-02-15T11:49:05.079Z,58.30
2019-02-15T11:51:33.521Z,57.00
2019-02-15T11:54:01.991Z,55.90
2019-02-15T11:56:30.427Z,55.50
2019-02-15T11:58:58.883Z,53.90
2019-02-15T12:01:27.320Z,54.70
2019-02-15T12:03:55.775Z,52.60
2019-02-15T12:06:24.273Z,49.90
2019-02-15T12:08:52.751Z,48.50
2019-02-15T12:11:21.229Z,48.40
2019-02-15T12:13:49.730Z,46.30
2019-02-15T12:16:18.160Z,46.50
2019-02-15T12:18:46.618Z,46.90
2019-02-15T12:21:15.098Z,48.30
2019-02-15T12:23:43.580Z,46.80
2019-02-15T12:26:12.018Z,47.50
2019-02-15T12:28:40.464Z,46.90
2019-02-15T12:31:08.901Z,46.50
2019-02-15T12:33:37.358Z,45.70
2019-02-15T12:36:05.796Z,46.00
2019-02-15T12:38:34.249Z,46.50
2019-02-15T12:41:02.699Z,46.10
2019-02-15T12:43:31.177Z,46.10
2019-02-15T12:45:59.696Z,47.00
2019-02-15T12:48:28.155Z,48.00
2019-02-15T12:50:56.594Z,47.70
2019-02-15T12:53:25.087Z,47.80
2019-02-15T12:55:53.518Z,47.50
2019-02-15T12:58:21.967Z,47.60
2019-02-15T13:00:50.488Z,47.30
2019-02-15T13:03:18.921Z,47.70
2019-02-15T13:05:47.405Z,47.60
2019-02-15T13:08:15.836Z,47.40
2019-02-15T13:10:44.269Z,46.90
2019-02-15T13:13:12.697Z,47.30
2019-02-15T13:15:41.165Z,47.00
2019-02-15T13:18:09.607Z,47.10
2019-02-15T13:20:38.059Z,47.00
2019-02-15T13:23:06.504Z,46.80
2019-02-15T13:25:36.879Z,46.80
2019-02-15T13:28:05.119Z,46.10
2019-02-15T13:30:33.601Z,45.70
2019-02-15T13:33:02.036Z,45.80
2019-02-15T13:35:30.500Z,46.10
2019-02-15T13:37:59.006Z,45.60
2019-02-15T13:40:27.456Z,47.20
2019-02-15T13:42:55.891Z,48.20
2019-02-15T13:45:24.359Z,47.90
2019-02-15T13:47:52.792Z,47.30
2019-02-15T13:50:21.238Z,47.30
2019-02-15T13:52:49.682Z,47.00
2019-02-15T13:55:18.134Z,47.20
2019-02-15T13:57:46.588Z,47.20
2019-02-15T14:00:15.414Z,46.30
2019-02-15T14:02:43.845Z,45.40
2019-02-15T14:05:12.945Z,46.10
2019-02-15T14:07:41.383Z,44.50
2019-02-15T14:10:11.952Z,42.80
2019-02-15T14:12:40.399Z,43.00
2019-02-15T14:15:10.546Z,43.40
2019-02-15T14:17:44.950Z,44.60
2019-02-15T14:20:16.104Z,45.30
2019-02-15T14:22:44.529Z,44.40
2019-02-15T14:25:13.053Z,43.50
2019-02-15T14:27:41.566Z,43.70
2019-02-15T14:30:12.575Z,44.40
2019-02-15T14:32:41.910Z,46.10
2019-02-15T14:35:11.728Z,46.20
2019-02-15T14:37:40.167Z,45.80
2019-02-15T14:40:10.827Z,43.20
2019-02-15T14:42:39.267Z,42.10
2019-02-15T14:45:12.579Z,43.90
2019-02-15T14:47:41.018Z,43.60
2019-02-15T14:50:10.525Z,43.80
2019-02-15T14:52:38.965Z,43.10
2019-02-15T14:55:09.055Z,42.50
2019-02-15T14:57:37.485Z,42.50
2019-02-15T15:00:11.843Z,43.70
2019-02-15T15:02:40.283Z,44.40
2019-02-15T15:05:09.972Z,43.10
2019-02-15T15:07:38.401Z,43.40
2019-02-15T15:10:08.694Z,44.10
2019-02-15T15:12:37.128Z,44.30
2019-02-15T15:15:12.908Z,44.30
2019-02-15T15:17:41.438Z,44.50
2019-02-15T15:20:11.909Z,45.50
2019-02-15T15:22:40.443Z,45.50
2019-02-15T15:25:15.569Z,44.90
2019-02-15T15:27:44.009Z,45.10
2019-02-15T15:30:13.917Z,44.60
2019-02-15T15:32:42.354Z,45.10
2019-02-15T15:35:11.662Z,43.90
2019-02-15T15:37:40.085Z,44.50
2019-02-15T15:40:11.581Z,45.20
2019-02-15T15:42:40.012Z,44.80
2019-02-15T15:45:10.519Z,44.50
2019-02-15T15:47:38.968Z,44.50
2019-02-15T15:50:09.651Z,44.10
2019-02-15T15:52:38.084Z,43.20
2019-02-15T15:55:10.621Z,42.30
2019-02-15T15:57:39.050Z,41.80
2019-02-15T16:00:12.883Z,42.10
2019-02-15T16:02:41.418Z,42.00
2019-02-15T16:05:10.521Z,41.90
2019-02-15T16:07:38.944Z,41.40
2019-02-15T16:10:10.062Z,41.40
2019-02-15T16:12:38.543Z,42.00
2019-02-15T16:15:09.642Z,42.50
2019-02-15T16:17:38.152Z,43.00
2019-02-15T16:20:09.163Z,43.20
2019-02-15T16:22:37.657Z,43.20
2019-02-15T16:25:07.647Z,43.20
2019-02-15T16:27:36.145Z,43.30
2019-02-15T16:30:07.740Z,43.00
2019-02-15T16:32:36.330Z,43.40
2019-02-15T16:35:05.511Z,43.60
2019-02-15T16:37:33.955Z,43.60
2019-02-15T16:40:02.429Z,46.00
2019-02-15T16:42:30.927Z,47.60
2019-02-15T16:44:59.383Z,49.10
2019-02-15T16:47:27.814Z,50.50
2019-02-15T16:49:56.267Z,52.50
2019-02-15T16:52:24.710Z,54.20
2019-02-15T16:54:53.182Z,55.30
2019-02-15T16:57:21.635Z,56.80
2019-02-15T16:59:50.087Z,58.40
2019-02-15T17:02:18.607Z,61.50
2019-02-15T17:04:47.052Z,64.60
2019-02-15T17:07:15.572Z,68.10
2019-02-15T17:09:44.021Z,73.00
2019-02-15T17:12:12.479Z,76.00
2019-02-15T17:14:40.929Z,78.90
2019-02-15T17:17:09.390Z,82.80
2019-02-15T17:19:37.821Z,85.70
2019-02-15T17:22:06.330Z,88.00
2019-02-15T17:24:34.760Z,89.80
2019-02-15T17:27:03.228Z,90.60
2019-02-15T17:29:31.668Z,91.30
2019-02-15T17:32:00.135Z,92.50
2019-02-15T17:34:28.572Z,93.70
2019-02-15T17:36:57.035Z,94.70
2019-02-15T17:39:25.472Z,95.10
2019-02-15T17:41:53.936Z,95.50
2019-02-15T17:44:22.366Z,95.90
2019-02-15T17:46:50.817Z,96.30
2019-02-15T17:49:19.260Z,96.50
2019-02-15T17:51:47.702Z,96.70
2019-02-15T17:54:16.138Z,97.00
2019-02-15T17:56:44.603Z,97.30
2019-02-15T17:59:13.042Z,97.50
2019-02-15T18:01:41.516Z,97.90
2019-02-15T18:04:09.990Z,98.20
2019-02-15T18:06:38.444Z,98.50
2019-02-15T18:09:06.869Z,98.50
2019-02-15T18:11:35.360Z,98.80
2019-02-15T18:14:03.869Z,99.00
2019-02-15T18:16:32.341Z,99.10
2019-02-15T18:19:09.631Z,99.40
2019-02-15T18:21:30.972Z,99.90
2019-02-15T18:23:59.428Z,99.90
2019-02-15T18:26:27.861Z,99.80
2019-02-15T18:28:56.332Z,99.60
2019-02-15T18:31:24.800Z,99.60
2019-02-15T18:33:53.247Z,99.60
2019-02-15T18:36:21.714Z,99.60
2019-02-15T18:38:50.220Z,99.70
2019-02-15T18:41:18.666Z,99.80
2019-02-15T18:43:47.122Z,99.80
2019-02-15T18:46:15.567Z,99.90
2019-02-15T18:48:44.023Z,99.90
2019-02-15T18:51:12.460Z,99.90
2019-02-15T18:53:40.901Z,99.90
2019-02-15T18:56:09.339Z,99.90
2019-02-15T18:58:37.799Z,99.90
2019-02-15T19:01:06.238Z,99.90
2019-02-15T19:03:34.780Z,99.90
2019-02-15T19:06:03.220Z,99.90
2019-02-15T19:08:31.675Z,99.90
2019-02-15T19:11:00.114Z,99.90
2019-02-15T19:13:28.589Z,99.90
2019-02-15T19:15:57.020Z,99.90
2019-02-15T19:18:25.505Z,99.90
2019-02-15T19:20:53.991Z,99.90
2019-02-15T19:23:22.441Z,99.90
2019-02-15T19:25:50.932Z,99.90
2019-02-15T19:28:19.409Z,99.90
2019-02-15T19:30:47.857Z,99.90
2019-02-15T19:33:16.405Z,99.90
2019-02-15T19:35:44.893Z,99.90
2019-02-15T19:38:13.377Z,99.90
2019-02-15T19:40:41.891Z,99.90
2019-02-15T19:43:12.350Z,99.90
2019-02-15T19:45:40.802Z,99.90
2019-02-15T19:48:09.240Z,99.90
2019-02-15T19:50:37.706Z,99.90
2019-02-15T19:53:06.143Z,99.90
2019-02-15T19:55:34.586Z,99.90
2019-02-15T19:58:03.017Z,99.90
2019-02-15T20:00:31.476Z,99.90
2019-02-15T20:02:59.914Z,99.90
2019-02-15T20:05:28.377Z,99.90
2019-02-15T20:07:56.878Z,99.90
2019-02-15T20:10:25.339Z,99.90
2019-02-15T20:12:53.781Z,99.90
2019-02-15T20:15:22.264Z,99.90
2019-02-15T20:17:50.758Z,99.90
2019-02-15T20:20:19.245Z,99.90
2019-02-15T20:22:47.694Z,99.90
2019-02-15T20:25:16.170Z,99.90
2019-02-15T20:27:44.667Z,99.90
2019-02-15T20:30:18.386Z,99.90
2019-02-15T20:32:46.806Z,99.90
2019-02-15T20:35:15.257Z,99.90
2019-02-15T20:37:43.721Z,99.90
2019-02-15T20:40:12.817Z,99.90
2019-02-15T20:42:41.235Z,99.90
2019-02-15T20:45:12.561Z,99.90
2019-02-15T20:47:40.998Z,99.90
2019-02-15T20:50:11.102Z,99.90
2019-02-15T20:52:39.538Z,99.90
2019-02-15T20:55:12.987Z,99.90
2019-02-15T20:57:41.417Z,99.90
2019-02-15T21:00:15.763Z,99.90
2019-02-15T21:02:44.207Z,99.90
2019-02-15T21:05:12.654Z,99.90
2019-02-15T21:07:41.105Z,99.90
2019-02-15T21:10:11.476Z,99.90
2019-02-15T21:12:39.966Z,99.90
2019-02-15T21:15:11.360Z,99.90
2019-02-15T21:17:39.842Z,99.90
2019-02-15T21:20:10.986Z,99.90
2019-02-15T21:22:39.446Z,99.90
2019-02-15T21:25:12.168Z,99.90
2019-02-15T21:27:40.608Z,99.90
2019-02-15T21:30:14.342Z,99.90
2019-02-15T21:32:42.815Z,99.90
2019-02-15T21:35:11.251Z,99.90
2019-02-15T21:37:39.692Z,99.90
2019-02-15T21:40:11.224Z,99.90
2019-02-15T21:42:39.806Z,99.90
2019-02-15T21:45:10.264Z,99.90
2019-02-15T21:47:38.711Z,99.90
2019-02-15T21:50:16.747Z,99.90
2019-02-15T21:52:44.353Z,99.90
2019-02-15T21:55:12.334Z,99.90
2019-02-15T21:57:40.783Z,99.90
2019-02-15T22:00:12.288Z,99.90
2019-02-15T22:02:40.764Z,99.90
2019-02-15T22:05:09.390Z,99.90
2019-02-15T22:07:37.850Z,99.90
2019-02-15T22:10:08.511Z,99.90
2019-02-15T22:12:36.969Z,99.90
2019-02-15T22:15:08.347Z,99.90
2019-02-15T22:17:36.837Z,99.90
2019-02-15T22:20:08.575Z,99.90
2019-02-15T22:22:37.030Z,99.90
2019-02-15T22:25:06.659Z,99.90
2019-02-15T22:27:35.123Z,99.90
2019-02-15T22:30:05.664Z,99.90
2019-02-15T22:32:34.102Z,99.90
2019-02-15T22:35:02.531Z,99.90
2019-02-15T22:37:30.981Z,99.90
2019-02-15T22:40:02.497Z,99.90
2019-02-15T22:42:30.955Z,99.90
2019-02-15T22:44:59.380Z,99.90
2019-02-15T22:47:27.828Z,99.90
2019-02-15T22:49:56.290Z,99.90
2019-02-15T22:52:24.798Z,99.90
2019-02-15T22:54:53.234Z,99.90
2019-02-15T22:57:21.705Z,99.90
2019-02-15T22:59:50.126Z,99.90
2019-02-15T23:02:18.747Z,99.90
2019-02-15T23:04:47.253Z,99.90
2019-02-15T23:07:15.687Z,99.90
2019-02-15T23:09:44.142Z,99.90
2019-02-15T23:12:12.599Z,99.90
2019-02-15T23:14:41.062Z,99.90
2019-02-15T23:17:09.563Z,99.90
2019-02-15T23:19:38.005Z,99.90
2019-02-15T23:22:06.434Z,99.90
2019-02-15T23:24:34.940Z,99.90
2019-02-15T23:27:03.409Z,99.90
2019-02-15T23:29:31.852Z,99.90
2019-02-15T23:32:00.296Z,99.90
2019-02-15T23:34:28.758Z,99.90
2019-02-15T23:36:57.192Z,99.90
2019-02-15T23:39:25.730Z,99.90
2019-02-15T23:41:54.253Z,99.90
2019-02-15T23:44:22.754Z,99.90
2019-02-15T23:46:51.193Z,99.90
2019-02-15T23:49:19.647Z,99.90
2019-02-15T23:51:48.103Z,99.90
2019-02-15T23:54:16.605Z,99.90
2019-02-15T23:56:45.027Z,99.90
2019-02-15T23:59:13.479Z,99.90
